sensor_id;sensor_type;location;lat;lon;timestamp;P1;durP1;ratioP1;P2;durP2;ratioP2
803;SDS011;25687;49.976;8.240;2023-04-24T00:00:31;3.63;;;1.40;;
803;SDS011;25687;49.976;8.240;2023-04-24T00:02:56;2.73;;;1.53;;
803;SDS011;25687;49.976;8.240;2023-04-24T00:05:22;3.80;;;1.20;;
803;SDS011;25687;49.976;8.240;2023-04-24T00:07:48;2.47;;;1.57;;
803;SDS011;25687;49.976;8.240;2023-04-24T00:10:17;1.63;;;1.27;;
803;SDS011;25687;49.976;8.240;2023-04-24T00:12:43;2.70;;;1.50;;
803;SDS011;25687;49.976;8.240;2023-04-24T00:15:08;1.63;;;1.30;;
803;SDS011;25687;49.976;8.240;2023-04-24T00:17:34;1.47;;;1.20;;
803;SDS011;25687;49.976;8.240;2023-04-24T00:19:59;1.43;;;1.33;;
803;SDS011;25687;49.976;8.240;2023-04-24T00:22:26;5.70;;;1.40;;
803;SDS011;25687;49.976;8.240;2023-04-24T00:24:52;1.37;;;1.27;;
803;SDS011;25687;49.976;8.240;2023-04-24T00:27:17;3.80;;;1.30;;
803;SDS011;25687;49.976;8.240;2023-04-24T00:29:43;3.20;;;1.53;;
803;SDS011;25687;49.976;8.240;2023-04-24T00:32:08;1.67;;;1.13;;
803;SDS011;25687;49.976;8.240;2023-04-24T00:34:33;1.93;;;1.20;;
803;SDS011;25687;49.976;8.240;2023-04-24T00:36:58;2.23;;;1.43;;
803;SDS011;25687;49.976;8.240;2023-04-24T00:39:24;2.77;;;1.20;;
803;SDS011;25687;49.976;8.240;2023-04-24T00:41:49;1.93;;;1.50;;
803;SDS011;25687;49.976;8.240;2023-04-24T00:44:15;1.60;;;1.50;;
803;SDS011;25687;49.976;8.240;2023-04-24T00:46:41;2.03;;;1.10;;
803;SDS011;25687;49.976;8.240;2023-04-24T00:49:07;1.90;;;1.50;;
803;SDS011;25687;49.976;8.240;2023-04-24T00:51:32;2.40;;;1.53;;
803;SDS011;25687;49.976;8.240;2023-04-24T00:53:59;1.77;;;1.43;;
803;SDS011;25687;49.976;8.240;2023-04-24T00:56:25;4.13;;;1.87;;
803;SDS011;25687;49.976;8.240;2023-04-24T00:58:50;1.63;;;1.30;;
803;SDS011;25687;49.976;8.240;2023-04-24T01:01:16;1.53;;;1.23;;
803;SDS011;25687;49.976;8.240;2023-04-24T01:03:43;1.93;;;1.20;;
803;SDS011;25687;49.976;8.240;2023-04-24T01:06:08;2.00;;;1.40;;
803;SDS011;25687;49.976;8.240;2023-04-24T01:08:35;3.77;;;1.40;;
803;SDS011;25687;49.976;8.240;2023-04-24T01:11:01;5.90;;;1.50;;
803;SDS011;25687;49.976;8.240;2023-04-24T01:13:29;2.00;;;1.60;;
803;SDS011;25687;49.976;8.240;2023-04-24T01:15:55;3.70;;;1.50;;
803;SDS011;25687;49.976;8.240;2023-04-24T01:18:20;2.63;;;1.60;;
803;SDS011;25687;49.976;8.240;2023-04-24T01:20:46;3.07;;;1.43;;
803;SDS011;25687;49.976;8.240;2023-04-24T01:23:17;3.27;;;1.40;;
803;SDS011;25687;49.976;8.240;2023-04-24T01:25:43;1.93;;;1.20;;
803;SDS011;25687;49.976;8.240;2023-04-24T01:28:09;4.13;;;1.50;;
803;SDS011;25687;49.976;8.240;2023-04-24T01:30:34;3.60;;;1.20;;
803;SDS011;25687;49.976;8.240;2023-04-24T01:33:00;2.30;;;1.50;;
803;SDS011;25687;49.976;8.240;2023-04-24T01:35:26;3.20;;;1.70;;
803;SDS011;25687;49.976;8.240;2023-04-24T01:37:51;4.10;;;1.40;;
803;SDS011;25687;49.976;8.240;2023-04-24T01:40:16;2.47;;;1.10;;
803;SDS011;25687;49.976;8.240;2023-04-24T01:42:42;2.37;;;1.30;;
803;SDS011;25687;49.976;8.240;2023-04-24T01:45:08;1.87;;;1.20;;
803;SDS011;25687;49.976;8.240;2023-04-24T01:47:35;4.83;;;1.30;;
803;SDS011;25687;49.976;8.240;2023-04-24T01:50:01;1.40;;;1.27;;
803;SDS011;25687;49.976;8.240;2023-04-24T01:52:27;1.63;;;1.50;;
803;SDS011;25687;49.976;8.240;2023-04-24T01:54:53;2.13;;;1.27;;
803;SDS011;25687;49.976;8.240;2023-04-24T01:57:20;4.43;;;1.97;;
803;SDS011;25687;49.976;8.240;2023-04-24T01:59:46;3.13;;;1.43;;
803;SDS011;25687;49.976;8.240;2023-04-24T02:02:11;2.43;;;1.43;;
803;SDS011;25687;49.976;8.240;2023-04-24T02:04:36;6.30;;;1.50;;
803;SDS011;25687;49.976;8.240;2023-04-24T02:07:02;3.03;;;1.90;;
803;SDS011;25687;49.976;8.240;2023-04-24T02:09:27;2.33;;;1.63;;
803;SDS011;25687;49.976;8.240;2023-04-24T02:11:52;3.73;;;1.50;;
803;SDS011;25687;49.976;8.240;2023-04-24T02:14:17;4.30;;;1.60;;
803;SDS011;25687;49.976;8.240;2023-04-24T02:16:43;1.97;;;1.40;;
803;SDS011;25687;49.976;8.240;2023-04-24T02:19:08;2.40;;;1.33;;
803;SDS011;25687;49.976;8.240;2023-04-24T02:21:34;3.93;;;1.40;;
803;SDS011;25687;49.976;8.240;2023-04-24T02:23:59;1.63;;;1.50;;
803;SDS011;25687;49.976;8.240;2023-04-24T02:26:25;3.67;;;1.40;;
803;SDS011;25687;49.976;8.240;2023-04-24T02:28:50;3.27;;;1.50;;
803;SDS011;25687;49.976;8.240;2023-04-24T02:31:15;1.50;;;1.30;;
803;SDS011;25687;49.976;8.240;2023-04-24T02:33:41;4.30;;;1.50;;
803;SDS011;25687;49.976;8.240;2023-04-24T02:36:06;2.07;;;1.50;;
803;SDS011;25687;49.976;8.240;2023-04-24T02:38:31;3.13;;;1.67;;
803;SDS011;25687;49.976;8.240;2023-04-24T02:40:57;2.23;;;1.43;;
803;SDS011;25687;49.976;8.240;2023-04-24T02:43:23;1.63;;;1.23;;
803;SDS011;25687;49.976;8.240;2023-04-24T02:45:48;1.30;;;1.20;;
803;SDS011;25687;49.976;8.240;2023-04-24T02:48:14;2.47;;;1.40;;
803;SDS011;25687;49.976;8.240;2023-04-24T02:50:39;3.07;;;1.20;;
803;SDS011;25687;49.976;8.240;2023-04-24T02:53:05;1.90;;;1.40;;
803;SDS011;25687;49.976;8.240;2023-04-24T02:55:30;1.43;;;1.30;;
803;SDS011;25687;49.976;8.240;2023-04-24T02:57:56;3.20;;;1.43;;
803;SDS011;25687;49.976;8.240;2023-04-24T03:00:21;1.63;;;1.27;;
803;SDS011;25687;49.976;8.240;2023-04-24T03:02:46;1.27;;;1.17;;
803;SDS011;25687;49.976;8.240;2023-04-24T03:05:12;3.20;;;1.40;;
803;SDS011;25687;49.976;8.240;2023-04-24T03:07:37;1.30;;;1.20;;
803;SDS011;25687;49.976;8.240;2023-04-24T03:10:03;2.17;;;1.30;;
803;SDS011;25687;49.976;8.240;2023-04-24T03:12:30;2.10;;;1.20;;
803;SDS011;25687;49.976;8.240;2023-04-24T03:14:56;2.87;;;1.40;;
803;SDS011;25687;49.976;8.240;2023-04-24T03:17:21;6.37;;;1.63;;
803;SDS011;25687;49.976;8.240;2023-04-24T03:19:46;3.63;;;1.83;;
803;SDS011;25687;49.976;8.240;2023-04-24T03:22:11;2.27;;;1.30;;
803;SDS011;25687;49.976;8.240;2023-04-24T03:24:37;1.30;;;1.20;;
803;SDS011;25687;49.976;8.240;2023-04-24T03:27:02;2.53;;;1.17;;
803;SDS011;25687;49.976;8.240;2023-04-24T03:29:27;2.00;;;1.43;;
803;SDS011;25687;49.976;8.240;2023-04-24T03:31:53;1.60;;;1.20;;
803;SDS011;25687;49.976;8.240;2023-04-24T03:34:18;1.53;;;1.17;;
803;SDS011;25687;49.976;8.240;2023-04-24T03:36:43;1.50;;;1.40;;
803;SDS011;25687;49.976;8.240;2023-04-24T03:39:09;2.33;;;1.20;;
803;SDS011;25687;49.976;8.240;2023-04-24T03:41:35;1.83;;;1.20;;
803;SDS011;25687;49.976;8.240;2023-04-24T03:44:00;1.53;;;1.37;;
803;SDS011;25687;49.976;8.240;2023-04-24T03:46:25;2.30;;;1.57;;
803;SDS011;25687;49.976;8.240;2023-04-24T03:48:50;2.13;;;1.50;;
803;SDS011;25687;49.976;8.240;2023-04-24T03:51:16;2.33;;;1.53;;
803;SDS011;25687;49.976;8.240;2023-04-24T03:53:41;3.23;;;1.50;;
803;SDS011;25687;49.976;8.240;2023-04-24T03:56:07;1.57;;;1.47;;
803;SDS011;25687;49.976;8.240;2023-04-24T03:58:32;2.73;;;1.67;;
803;SDS011;25687;49.976;8.240;2023-04-24T04:00:58;2.63;;;1.40;;
803;SDS011;25687;49.976;8.240;2023-04-24T04:03:23;2.40;;;1.50;;
803;SDS011;25687;49.976;8.240;2023-04-24T04:05:49;4.53;;;2.27;;
803;SDS011;25687;49.976;8.240;2023-04-24T04:08:14;1.60;;;1.50;;
803;SDS011;25687;49.976;8.240;2023-04-24T04:10:39;1.50;;;1.40;;
803;SDS011;25687;49.976;8.240;2023-04-24T04:13:05;1.83;;;1.73;;
803;SDS011;25687;49.976;8.240;2023-04-24T04:15:31;1.87;;;1.77;;
803;SDS011;25687;49.976;8.240;2023-04-24T04:17:56;2.57;;;1.63;;
803;SDS011;25687;49.976;8.240;2023-04-24T04:20:22;2.00;;;1.80;;
803;SDS011;25687;49.976;8.240;2023-04-24T04:22:47;3.53;;;1.93;;
803;SDS011;25687;49.976;8.240;2023-04-24T04:25:13;2.10;;;1.97;;
803;SDS011;25687;49.976;8.240;2023-04-24T04:27:38;2.17;;;1.87;;
803;SDS011;25687;49.976;8.240;2023-04-24T04:30:06;2.50;;;2.30;;
803;SDS011;25687;49.976;8.240;2023-04-24T04:32:33;2.30;;;2.03;;
803;SDS011;25687;49.976;8.240;2023-04-24T04:34:59;2.30;;;2.10;;
803;SDS011;25687;49.976;8.240;2023-04-24T04:37:29;2.63;;;2.23;;
803;SDS011;25687;49.976;8.240;2023-04-24T04:39:55;3.53;;;2.50;;
803;SDS011;25687;49.976;8.240;2023-04-24T04:42:20;3.43;;;2.70;;
803;SDS011;25687;49.976;8.240;2023-04-24T04:44:45;5.10;;;4.00;;
803;SDS011;25687;49.976;8.240;2023-04-24T04:47:11;2.57;;;2.27;;
803;SDS011;25687;49.976;8.240;2023-04-24T04:49:37;2.20;;;1.90;;
803;SDS011;25687;49.976;8.240;2023-04-24T04:52:03;3.37;;;2.57;;
803;SDS011;25687;49.976;8.240;2023-04-24T04:54:29;2.80;;;2.60;;
803;SDS011;25687;49.976;8.240;2023-04-24T04:56:54;2.83;;;2.63;;
803;SDS011;25687;49.976;8.240;2023-04-24T04:59:20;2.93;;;2.67;;
803;SDS011;25687;49.976;8.240;2023-04-24T05:01:45;3.80;;;2.50;;
803;SDS011;25687;49.976;8.240;2023-04-24T05:04:11;3.10;;;2.80;;
803;SDS011;25687;49.976;8.240;2023-04-24T05:06:36;3.77;;;2.43;;
803;SDS011;25687;49.976;8.240;2023-04-24T05:09:03;3.20;;;3.00;;
803;SDS011;25687;49.976;8.240;2023-04-24T05:11:30;3.07;;;2.77;;
803;SDS011;25687;49.976;8.240;2023-04-24T05:13:56;6.50;;;2.70;;
803;SDS011;25687;49.976;8.240;2023-04-24T05:16:21;4.30;;;3.27;;
803;SDS011;25687;49.976;8.240;2023-04-24T05:18:46;3.40;;;2.90;;
803;SDS011;25687;49.976;8.240;2023-04-24T05:21:11;3.43;;;2.80;;
803;SDS011;25687;49.976;8.240;2023-04-24T05:23:37;3.60;;;2.90;;
803;SDS011;25687;49.976;8.240;2023-04-24T05:26:02;3.30;;;3.00;;
803;SDS011;25687;49.976;8.240;2023-04-24T05:28:27;3.17;;;2.97;;
803;SDS011;25687;49.976;8.240;2023-04-24T05:30:53;3.17;;;2.87;;
803;SDS011;25687;49.976;8.240;2023-04-24T05:33:20;3.43;;;2.53;;
803;SDS011;25687;49.976;8.240;2023-04-24T05:35:46;3.37;;;2.70;;
803;SDS011;25687;49.976;8.240;2023-04-24T05:38:12;3.00;;;2.80;;
803;SDS011;25687;49.976;8.240;2023-04-24T05:40:37;4.70;;;3.13;;
803;SDS011;25687;49.976;8.240;2023-04-24T05:43:03;4.57;;;3.00;;
803;SDS011;25687;49.976;8.240;2023-04-24T05:45:28;4.43;;;3.00;;
803;SDS011;25687;49.976;8.240;2023-04-24T05:47:54;4.07;;;3.07;;
803;SDS011;25687;49.976;8.240;2023-04-24T05:50:19;6.20;;;2.73;;
803;SDS011;25687;49.976;8.240;2023-04-24T05:52:44;4.37;;;3.10;;
803;SDS011;25687;49.976;8.240;2023-04-24T05:55:10;3.07;;;2.77;;
803;SDS011;25687;49.976;8.240;2023-04-24T05:57:35;5.00;;;3.23;;
803;SDS011;25687;49.976;8.240;2023-04-24T06:00:01;5.33;;;3.70;;
803;SDS011;25687;49.976;8.240;2023-04-24T06:02:26;5.17;;;3.20;;
803;SDS011;25687;49.976;8.240;2023-04-24T06:04:52;3.57;;;3.27;;
803;SDS011;25687;49.976;8.240;2023-04-24T06:07:17;4.20;;;3.40;;
803;SDS011;25687;49.976;8.240;2023-04-24T06:09:43;4.10;;;3.60;;
803;SDS011;25687;49.976;8.240;2023-04-24T06:12:10;4.07;;;3.43;;
803;SDS011;25687;49.976;8.240;2023-04-24T06:14:35;7.77;;;3.00;;
803;SDS011;25687;49.976;8.240;2023-04-24T06:17:00;3.50;;;3.20;;
803;SDS011;25687;49.976;8.240;2023-04-24T06:19:25;5.77;;;2.87;;
803;SDS011;25687;49.976;8.240;2023-04-24T06:21:51;3.50;;;3.20;;
803;SDS011;25687;49.976;8.240;2023-04-24T06:24:16;3.20;;;3.00;;
803;SDS011;25687;49.976;8.240;2023-04-24T06:26:41;3.33;;;2.97;;
803;SDS011;25687;49.976;8.240;2023-04-24T06:29:07;5.97;;;3.33;;
803;SDS011;25687;49.976;8.240;2023-04-24T06:31:32;3.73;;;3.43;;
803;SDS011;25687;49.976;8.240;2023-04-24T06:34:02;5.90;;;3.53;;
803;SDS011;25687;49.976;8.240;2023-04-24T06:36:29;4.17;;;3.40;;
803;SDS011;25687;49.976;8.240;2023-04-24T06:38:55;4.00;;;3.60;;
803;SDS011;25687;49.976;8.240;2023-04-24T06:41:21;3.93;;;3.57;;
803;SDS011;25687;49.976;8.240;2023-04-24T06:43:46;4.20;;;3.80;;
803;SDS011;25687;49.976;8.240;2023-04-24T06:46:12;4.70;;;4.03;;
803;SDS011;25687;49.976;8.240;2023-04-24T06:48:38;3.73;;;3.43;;
803;SDS011;25687;49.976;8.240;2023-04-24T06:51:04;3.63;;;3.33;;
803;SDS011;25687;49.976;8.240;2023-04-24T06:53:29;3.90;;;3.30;;
803;SDS011;25687;49.976;8.240;2023-04-24T06:55:55;3.67;;;3.40;;
803;SDS011;25687;49.976;8.240;2023-04-24T06:58:20;4.50;;;3.17;;
803;SDS011;25687;49.976;8.240;2023-04-24T07:00:46;3.37;;;2.73;;
803;SDS011;25687;49.976;8.240;2023-04-24T07:03:11;2.90;;;2.70;;
803;SDS011;25687;49.976;8.240;2023-04-24T07:05:36;4.00;;;3.13;;
803;SDS011;25687;49.976;8.240;2023-04-24T07:08:03;2.87;;;2.67;;
803;SDS011;25687;49.976;8.240;2023-04-24T07:10:28;2.90;;;2.70;;
803;SDS011;25687;49.976;8.240;2023-04-24T07:12:54;3.33;;;3.03;;
803;SDS011;25687;49.976;8.240;2023-04-24T07:15:21;3.07;;;2.80;;
803;SDS011;25687;49.976;8.240;2023-04-24T07:17:47;2.83;;;2.60;;
803;SDS011;25687;49.976;8.240;2023-04-24T07:20:12;3.30;;;2.33;;
803;SDS011;25687;49.976;8.240;2023-04-24T07:22:39;2.63;;;2.40;;
803;SDS011;25687;49.976;8.240;2023-04-24T07:25:04;2.50;;;2.30;;
803;SDS011;25687;49.976;8.240;2023-04-24T07:27:30;3.40;;;2.83;;
803;SDS011;25687;49.976;8.240;2023-04-24T07:29:55;2.77;;;2.40;;
803;SDS011;25687;49.976;8.240;2023-04-24T07:32:21;4.23;;;2.70;;
803;SDS011;25687;49.976;8.240;2023-04-24T07:34:46;2.37;;;2.17;;
803;SDS011;25687;49.976;8.240;2023-04-24T07:37:11;2.63;;;2.20;;
803;SDS011;25687;49.976;8.240;2023-04-24T07:39:37;2.27;;;2.07;;
803;SDS011;25687;49.976;8.240;2023-04-24T07:42:02;2.20;;;1.93;;
803;SDS011;25687;49.976;8.240;2023-04-24T07:44:28;4.80;;;2.40;;
803;SDS011;25687;49.976;8.240;2023-04-24T07:46:54;3.53;;;2.40;;
803;SDS011;25687;49.976;8.240;2023-04-24T07:49:19;5.23;;;2.00;;
803;SDS011;25687;49.976;8.240;2023-04-24T07:51:45;2.80;;;2.27;;
803;SDS011;25687;49.976;8.240;2023-04-24T07:54:10;2.80;;;2.30;;
803;SDS011;25687;49.976;8.240;2023-04-24T07:56:35;2.47;;;2.27;;
803;SDS011;25687;49.976;8.240;2023-04-24T07:59:03;3.50;;;2.37;;
803;SDS011;25687;49.976;8.240;2023-04-24T08:01:30;2.23;;;2.03;;
803;SDS011;25687;49.976;8.240;2023-04-24T08:03:55;3.03;;;2.20;;
803;SDS011;25687;49.976;8.240;2023-04-24T08:06:21;2.40;;;2.10;;
803;SDS011;25687;49.976;8.240;2023-04-24T08:08:47;2.50;;;2.30;;
803;SDS011;25687;49.976;8.240;2023-04-24T08:11:12;4.40;;;2.20;;
803;SDS011;25687;49.976;8.240;2023-04-24T08:13:37;2.00;;;1.77;;
803;SDS011;25687;49.976;8.240;2023-04-24T08:16:02;1.93;;;1.83;;
803;SDS011;25687;49.976;8.240;2023-04-24T08:18:28;2.33;;;1.80;;
803;SDS011;25687;49.976;8.240;2023-04-24T08:20:53;2.07;;;1.87;;
803;SDS011;25687;49.976;8.240;2023-04-24T08:23:18;2.43;;;2.10;;
803;SDS011;25687;49.976;8.240;2023-04-24T08:25:44;3.63;;;2.27;;
803;SDS011;25687;49.976;8.240;2023-04-24T08:28:09;2.20;;;2.00;;
803;SDS011;25687;49.976;8.240;2023-04-24T08:30:35;3.67;;;2.20;;
803;SDS011;25687;49.976;8.240;2023-04-24T08:33:01;2.57;;;2.37;;
803;SDS011;25687;49.976;8.240;2023-04-24T08:35:26;2.30;;;2.10;;
803;SDS011;25687;49.976;8.240;2023-04-24T08:37:52;2.13;;;2.00;;
803;SDS011;25687;49.976;8.240;2023-04-24T08:40:18;3.03;;;2.20;;
803;SDS011;25687;49.976;8.240;2023-04-24T08:42:51;2.63;;;2.43;;
803;SDS011;25687;49.976;8.240;2023-04-24T08:45:19;3.20;;;2.10;;
803;SDS011;25687;49.976;8.240;2023-04-24T08:47:44;5.00;;;2.57;;
803;SDS011;25687;49.976;8.240;2023-04-24T08:50:10;2.60;;;2.30;;
803;SDS011;25687;49.976;8.240;2023-04-24T08:52:36;2.63;;;2.17;;
803;SDS011;25687;49.976;8.240;2023-04-24T08:55:02;2.50;;;2.30;;
803;SDS011;25687;49.976;8.240;2023-04-24T08:57:28;2.60;;;2.40;;
803;SDS011;25687;49.976;8.240;2023-04-24T08:59:54;2.57;;;2.33;;
803;SDS011;25687;49.976;8.240;2023-04-24T09:02:21;2.50;;;2.30;;
803;SDS011;25687;49.976;8.240;2023-04-24T09:04:48;2.20;;;2.00;;
803;SDS011;25687;49.976;8.240;2023-04-24T09:07:14;3.20;;;2.10;;
803;SDS011;25687;49.976;8.240;2023-04-24T09:09:44;3.00;;;2.70;;
803;SDS011;25687;49.976;8.240;2023-04-24T09:12:10;2.23;;;2.10;;
803;SDS011;25687;49.976;8.240;2023-04-24T09:14:36;2.73;;;2.50;;
803;SDS011;25687;49.976;8.240;2023-04-24T09:17:07;3.00;;;2.27;;
803;SDS011;25687;49.976;8.240;2023-04-24T09:19:33;2.60;;;2.10;;
803;SDS011;25687;49.976;8.240;2023-04-24T09:21:58;2.20;;;1.87;;
803;SDS011;25687;49.976;8.240;2023-04-24T09:24:23;2.50;;;1.90;;
803;SDS011;25687;49.976;8.240;2023-04-24T09:26:55;3.00;;;2.20;;
803;SDS011;25687;49.976;8.240;2023-04-24T09:29:26;2.60;;;2.03;;
803;SDS011;25687;49.976;8.240;2023-04-24T09:31:52;3.03;;;2.30;;
803;SDS011;25687;49.976;8.240;2023-04-24T09:34:24;2.60;;;1.67;;
803;SDS011;25687;49.976;8.240;2023-04-24T09:36:51;3.03;;;1.83;;
803;SDS011;25687;49.976;8.240;2023-04-24T09:39:17;1.90;;;1.77;;
803;SDS011;25687;49.976;8.240;2023-04-24T09:41:54;1.60;;;1.50;;
803;SDS011;25687;49.976;8.240;2023-04-24T09:44:25;1.80;;;1.70;;
803;SDS011;25687;49.976;8.240;2023-04-24T09:46:53;1.93;;;1.83;;
803;SDS011;25687;49.976;8.240;2023-04-24T09:49:23;1.70;;;1.60;;
803;SDS011;25687;49.976;8.240;2023-04-24T09:52:05;2.50;;;1.93;;
803;SDS011;25687;49.976;8.240;2023-04-24T09:54:32;1.60;;;1.47;;
803;SDS011;25687;49.976;8.240;2023-04-24T09:56:58;5.03;;;2.47;;
803;SDS011;25687;49.976;8.240;2023-04-24T09:59:25;2.00;;;1.90;;
803;SDS011;25687;49.976;8.240;2023-04-24T10:01:50;2.80;;;2.00;;
803;SDS011;25687;49.976;8.240;2023-04-24T10:06:50;2.17;;;1.80;;
803;SDS011;25687;49.976;8.240;2023-04-24T10:09:17;1.60;;;1.50;;
803;SDS011;25687;49.976;8.240;2023-04-24T10:11:45;3.23;;;1.70;;
803;SDS011;25687;49.976;8.240;2023-04-24T10:14:13;2.40;;;2.23;;
803;SDS011;25687;49.976;8.240;2023-04-24T10:16:39;1.77;;;1.67;;
803;SDS011;25687;49.976;8.240;2023-04-24T10:19:06;2.27;;;2.07;;
803;SDS011;25687;49.976;8.240;2023-04-24T10:21:32;3.47;;;1.90;;
803;SDS011;25687;49.976;8.240;2023-04-24T10:23:58;1.77;;;1.67;;
803;SDS011;25687;49.976;8.240;2023-04-24T10:26:25;1.80;;;1.70;;
803;SDS011;25687;49.976;8.240;2023-04-24T10:28:52;2.13;;;1.87;;
803;SDS011;25687;49.976;8.240;2023-04-24T10:31:19;2.80;;;2.03;;
803;SDS011;25687;49.976;8.240;2023-04-24T10:33:45;4.00;;;2.43;;
803;SDS011;25687;49.976;8.240;2023-04-24T10:36:11;2.20;;;2.00;;
803;SDS011;25687;49.976;8.240;2023-04-24T10:38:39;2.73;;;2.13;;
803;SDS011;25687;49.976;8.240;2023-04-24T10:41:07;2.47;;;2.23;;
803;SDS011;25687;49.976;8.240;2023-04-24T10:43:41;3.07;;;1.80;;
803;SDS011;25687;49.976;8.240;2023-04-24T10:46:07;3.40;;;2.00;;
803;SDS011;25687;49.976;8.240;2023-04-24T10:48:35;1.73;;;1.60;;
803;SDS011;25687;49.976;8.240;2023-04-24T10:51:00;3.03;;;1.57;;
803;SDS011;25687;49.976;8.240;2023-04-24T10:53:29;2.40;;;1.60;;
803;SDS011;25687;49.976;8.240;2023-04-24T10:56:05;1.70;;;1.60;;
803;SDS011;25687;49.976;8.240;2023-04-24T11:01:29;1.03;;;1.03;;
803;SDS011;25687;49.976;8.240;2023-04-24T11:03:57;1.10;;;1.00;;
803;SDS011;25687;49.976;8.240;2023-04-24T11:06:34;1.17;;;1.10;;
803;SDS011;25687;49.976;8.240;2023-04-24T11:09:03;1.30;;;1.20;;
803;SDS011;25687;49.976;8.240;2023-04-24T11:11:32;2.50;;;1.40;;
803;SDS011;25687;49.976;8.240;2023-04-24T11:16:34;1.40;;;1.30;;
803;SDS011;25687;49.976;8.240;2023-04-24T11:24:28;1.20;;;1.10;;
803;SDS011;25687;49.976;8.240;2023-04-24T11:26:57;0.70;;;0.70;;
803;SDS011;25687;49.976;8.240;2023-04-24T11:29:23;1.80;;;1.00;;
803;SDS011;25687;49.976;8.240;2023-04-24T11:32:23;1.33;;;0.70;;
803;SDS011;25687;49.976;8.240;2023-04-24T11:35:01;3.00;;;1.00;;
803;SDS011;25687;49.976;8.240;2023-04-24T11:37:41;2.23;;;1.00;;
803;SDS011;25687;49.976;8.240;2023-04-24T11:40:10;1.83;;;1.20;;
803;SDS011;25687;49.976;8.240;2023-04-24T11:42:38;1.90;;;1.70;;
803;SDS011;25687;49.976;8.240;2023-04-24T11:45:08;4.20;;;2.10;;
803;SDS011;25687;49.976;8.240;2023-04-24T11:47:35;2.07;;;1.83;;
803;SDS011;25687;49.976;8.240;2023-04-24T11:50:02;4.17;;;1.90;;
803;SDS011;25687;49.976;8.240;2023-04-24T11:52:33;2.73;;;2.53;;
803;SDS011;25687;49.976;8.240;2023-04-24T11:55:01;2.17;;;1.97;;
803;SDS011;25687;49.976;8.240;2023-04-24T11:57:26;2.37;;;2.00;;
803;SDS011;25687;49.976;8.240;2023-04-24T11:59:58;2.53;;;2.33;;
803;SDS011;25687;49.976;8.240;2023-04-24T12:02:23;3.33;;;2.30;;
803;SDS011;25687;49.976;8.240;2023-04-24T12:04:51;2.13;;;1.93;;
803;SDS011;25687;49.976;8.240;2023-04-24T12:07:17;3.80;;;2.47;;
803;SDS011;25687;49.976;8.240;2023-04-24T12:09:43;2.60;;;2.40;;
803;SDS011;25687;49.976;8.240;2023-04-24T12:12:11;2.57;;;2.23;;
803;SDS011;25687;49.976;8.240;2023-04-24T12:14:48;3.23;;;2.43;;
803;SDS011;25687;49.976;8.240;2023-04-24T12:17:30;2.77;;;2.57;;
803;SDS011;25687;49.976;8.240;2023-04-24T12:19:58;3.47;;;2.70;;
803;SDS011;25687;49.976;8.240;2023-04-24T12:25:10;2.77;;;2.50;;
803;SDS011;25687;49.976;8.240;2023-04-24T12:27:36;3.20;;;2.80;;
803;SDS011;25687;49.976;8.240;2023-04-24T12:30:03;4.07;;;2.90;;
803;SDS011;25687;49.976;8.240;2023-04-24T12:32:30;4.00;;;2.70;;
803;SDS011;25687;49.976;8.240;2023-04-24T12:34:56;2.67;;;2.47;;
803;SDS011;25687;49.976;8.240;2023-04-24T12:37:25;5.83;;;2.60;;
803;SDS011;25687;49.976;8.240;2023-04-24T12:42:31;4.73;;;2.60;;
803;SDS011;25687;49.976;8.240;2023-04-24T12:44:57;2.83;;;2.20;;
803;SDS011;25687;49.976;8.240;2023-04-24T12:47:25;3.07;;;2.37;;
803;SDS011;25687;49.976;8.240;2023-04-24T12:49:51;5.17;;;2.53;;
803;SDS011;25687;49.976;8.240;2023-04-24T12:52:17;3.07;;;2.77;;
803;SDS011;25687;49.976;8.240;2023-04-24T12:54:45;4.43;;;3.10;;
803;SDS011;25687;49.976;8.240;2023-04-24T12:57:10;3.57;;;2.77;;
803;SDS011;25687;49.976;8.240;2023-04-24T12:59:36;4.87;;;2.83;;
803;SDS011;25687;49.976;8.240;2023-04-24T13:02:01;4.30;;;2.87;;
803;SDS011;25687;49.976;8.240;2023-04-24T13:04:27;3.07;;;2.40;;
803;SDS011;25687;49.976;8.240;2023-04-24T13:06:52;5.93;;;2.60;;
803;SDS011;25687;49.976;8.240;2023-04-24T13:09:18;3.97;;;2.60;;
803;SDS011;25687;49.976;8.240;2023-04-24T13:11:43;5.20;;;2.57;;
803;SDS011;25687;49.976;8.240;2023-04-24T13:14:08;2.93;;;2.53;;
803;SDS011;25687;49.976;8.240;2023-04-24T13:16:33;3.10;;;2.80;;
803;SDS011;25687;49.976;8.240;2023-04-24T13:18:59;7.00;;;3.43;;
803;SDS011;25687;49.976;8.240;2023-04-24T13:21:24;3.50;;;2.90;;
803;SDS011;25687;49.976;8.240;2023-04-24T13:23:51;4.50;;;3.00;;
803;SDS011;25687;49.976;8.240;2023-04-24T13:26:16;5.77;;;3.30;;
803;SDS011;25687;49.976;8.240;2023-04-24T13:28:42;4.50;;;3.43;;
803;SDS011;25687;49.976;8.240;2023-04-24T13:31:07;4.63;;;3.40;;
803;SDS011;25687;49.976;8.240;2023-04-24T13:33:32;5.57;;;3.47;;
803;SDS011;25687;49.976;8.240;2023-04-24T13:35:58;3.97;;;3.13;;
803;SDS011;25687;49.976;8.240;2023-04-24T13:38:23;7.40;;;3.40;;
803;SDS011;25687;49.976;8.240;2023-04-24T13:40:48;5.27;;;3.37;;
803;SDS011;25687;49.976;8.240;2023-04-24T13:43:14;4.33;;;3.00;;
803;SDS011;25687;49.976;8.240;2023-04-24T13:45:39;3.87;;;2.90;;
803;SDS011;25687;49.976;8.240;2023-04-24T13:48:04;5.83;;;2.83;;
803;SDS011;25687;49.976;8.240;2023-04-24T13:50:30;5.53;;;3.07;;
803;SDS011;25687;49.976;8.240;2023-04-24T13:52:55;5.47;;;2.60;;
803;SDS011;25687;49.976;8.240;2023-04-24T13:55:21;3.37;;;2.73;;
803;SDS011;25687;49.976;8.240;2023-04-24T13:57:47;5.13;;;3.07;;
803;SDS011;25687;49.976;8.240;2023-04-24T14:00:12;5.00;;;3.07;;
803;SDS011;25687;49.976;8.240;2023-04-24T14:02:38;5.27;;;3.10;;
803;SDS011;25687;49.976;8.240;2023-04-24T14:05:04;2.93;;;2.60;;
803;SDS011;25687;49.976;8.240;2023-04-24T14:07:31;3.07;;;2.50;;
803;SDS011;25687;49.976;8.240;2023-04-24T14:09:57;4.97;;;2.80;;
803;SDS011;25687;49.976;8.240;2023-04-24T14:12:22;6.27;;;2.97;;
803;SDS011;25687;49.976;8.240;2023-04-24T14:14:48;6.80;;;2.77;;
803;SDS011;25687;49.976;8.240;2023-04-24T14:17:16;5.40;;;3.00;;
803;SDS011;25687;49.976;8.240;2023-04-24T14:19:42;3.90;;;2.83;;
803;SDS011;25687;49.976;8.240;2023-04-24T14:22:07;5.03;;;3.07;;
803;SDS011;25687;49.976;8.240;2023-04-24T14:24:33;4.70;;;3.17;;
803;SDS011;25687;49.976;8.240;2023-04-24T14:27:01;5.43;;;2.80;;
803;SDS011;25687;49.976;8.240;2023-04-24T14:29:26;4.23;;;2.77;;
803;SDS011;25687;49.976;8.240;2023-04-24T14:31:52;5.13;;;2.70;;
803;SDS011;25687;49.976;8.240;2023-04-24T14:34:17;7.30;;;2.73;;
803;SDS011;25687;49.976;8.240;2023-04-24T14:36:43;5.33;;;3.13;;
803;SDS011;25687;49.976;8.240;2023-04-24T14:39:08;3.07;;;2.53;;
803;SDS011;25687;49.976;8.240;2023-04-24T14:41:35;4.33;;;2.80;;
803;SDS011;25687;49.976;8.240;2023-04-24T14:44:02;3.03;;;2.77;;
803;SDS011;25687;49.976;8.240;2023-04-24T14:46:28;3.50;;;3.20;;
803;SDS011;25687;49.976;8.240;2023-04-24T14:48:55;4.27;;;3.27;;
803;SDS011;25687;49.976;8.240;2023-04-24T14:51:21;3.50;;;2.80;;
803;SDS011;25687;49.976;8.240;2023-04-24T14:53:46;4.73;;;2.53;;
803;SDS011;25687;49.976;8.240;2023-04-24T14:56:12;5.90;;;2.50;;
803;SDS011;25687;49.976;8.240;2023-04-24T14:58:38;5.30;;;3.00;;
803;SDS011;25687;49.976;8.240;2023-04-24T15:01:03;3.50;;;2.67;;
803;SDS011;25687;49.976;8.240;2023-04-24T15:03:28;2.77;;;2.57;;
803;SDS011;25687;49.976;8.240;2023-04-24T15:05:54;3.13;;;2.37;;
803;SDS011;25687;49.976;8.240;2023-04-24T15:08:19;3.33;;;2.57;;
803;SDS011;25687;49.976;8.240;2023-04-24T15:10:45;4.13;;;2.70;;
803;SDS011;25687;49.976;8.240;2023-04-24T15:13:11;3.60;;;2.83;;
803;SDS011;25687;49.976;8.240;2023-04-24T15:15:36;3.03;;;2.70;;
803;SDS011;25687;49.976;8.240;2023-04-24T15:18:02;4.00;;;2.40;;
803;SDS011;25687;49.976;8.240;2023-04-24T15:20:27;3.80;;;2.80;;
803;SDS011;25687;49.976;8.240;2023-04-24T15:22:52;4.20;;;3.07;;
803;SDS011;25687;49.976;8.240;2023-04-24T15:25:18;3.37;;;2.87;;
803;SDS011;25687;49.976;8.240;2023-04-24T15:27:43;3.90;;;2.87;;